sensor_id;sensor_type;location;lat;lon;timestamp;temperature;humidity
15906;DHT22;8051;50.820;4.884;2023-07-13T00:01:55;15.50;99.90
15906;DHT22;8051;50.820;4.884;2023-07-13T00:04:24;15.50;99.90
15906;DHT22;8051;50.820;4.884;2023-07-13T00:06:52;15.40;99.90
15906;DHT22;8051;50.820;4.884;2023-07-13T00:09:21;15.40;99.90
15906;DHT22;8051;50.820;4.884;2023-07-13T00:11:51;15.40;99.90
15906;DHT22;8051;50.820;4.884;2023-07-13T00:14:20;15.30;99.90
15906;DHT22;8051;50.820;4.884;2023-07-13T00:16:48;15.30;99.90
15906;DHT22;8051;50.820;4.884;2023-07-13T00:19:16;15.30;99.90
15906;DHT22;8051;50.820;4.884;2023-07-13T00:21:43;15.30;99.90
15906;DHT22;8051;50.820;4.884;2023-07-13T00:24:12;15.20;99.90
15906;DHT22;8051;50.820;4.884;2023-07-13T00:26:40;15.20;99.90
15906;DHT22;8051;50.820;4.884;2023-07-13T00:29:11;15.20;99.90
15906;DHT22;8051;50.820;4.884;2023-07-13T00:31:40;15.20;99.90
15906;DHT22;8051;50.820;4.884;2023-07-13T00:34:08;15.10;99.90
15906;DHT22;8051;50.820;4.884;2023-07-13T00:36:36;15.10;99.90
15906;DHT22;8051;50.820;4.884;2023-07-13T00:39:03;15.10;99.90
15906;DHT22;8051;50.820;4.884;2023-07-13T00:41:31;15.10;99.90
15906;DHT22;8051;50.820;4.884;2023-07-13T00:43:59;15.10;99.90
15906;DHT22;8051;50.820;4.884;2023-07-13T00:46:28;15.00;99.90
15906;DHT22;8051;50.820;4.884;2023-07-13T00:49:00;15.00;99.90
15906;DHT22;8051;50.820;4.884;2023-07-13T00:51:32;15.00;99.90
15906;DHT22;8051;50.820;4.884;2023-07-13T00:54:05;15.00;99.90
15906;DHT22;8051;50.820;4.884;2023-07-13T00:56:34;15.00;99.90
15906;DHT22;8051;50.820;4.884;2023-07-13T00:59:03;14.90;99.90
15906;DHT22;8051;50.820;4.884;2023-07-13T01:01:33;14.90;99.90
15906;DHT22;8051;50.820;4.884;2023-07-13T01:04:04;14.90;99.90
15906;DHT22;8051;50.820;4.884;2023-07-13T01:06:34;14.90;99.90
15906;DHT22;8051;50.820;4.884;2023-07-13T01:09:03;14.90;99.90
15906;DHT22;8051;50.820;4.884;2023-07-13T01:11:30;14.90;99.90
15906;DHT22;8051;50.820;4.884;2023-07-13T01:13:58;14.80;99.90
15906;DHT22;8051;50.820;4.884;2023-07-13T01:16:29;14.80;99.90
15906;DHT22;8051;50.820;4.884;2023-07-13T01:18:58;14.80;99.90
15906;DHT22;8051;50.820;4.884;2023-07-13T01:21:29;14.80;99.90
15906;DHT22;8051;50.820;4.884;2023-07-13T01:23:57;14.70;99.90
15906;DHT22;8051;50.820;4.884;2023-07-13T01:26:24;14.70;99.90
15906;DHT22;8051;50.820;4.884;2023-07-13T01:28:52;14.60;99.90
15906;DHT22;8051;50.820;4.884;2023-07-13T01:31:22;14.60;99.90
15906;DHT22;8051;50.820;4.884;2023-07-13T01:33:49;14.50;99.90
15906;DHT22;8051;50.820;4.884;2023-07-13T01:36:17;14.50;99.90
15906;DHT22;8051;50.820;4.884;2023-07-13T01:38:48;14.50;99.90
15906;DHT22;8051;50.820;4.884;2023-07-13T01:41:16;14.50;99.90
15906;DHT22;8051;50.820;4.884;2023-07-13T01:43:43;14.50;99.90
15906;DHT22;8051;50.820;4.884;2023-07-13T01:46:10;14.40;99.90
15906;DHT22;8051;50.820;4.884;2023-07-13T01:48:38;14.40;99.90
15906;DHT22;8051;50.820;4.884;2023-07-13T01:51:05;14.40;99.90
15906;DHT22;8051;50.820;4.884;2023-07-13T01:53:32;14.40;99.90
15906;DHT22;8051;50.820;4.884;2023-07-13T01:56:01;14.40;99.90
15906;DHT22;8051;50.820;4.884;2023-07-13T01:58:29;14.30;99.90
15906;DHT22;8051;50.820;4.884;2023-07-13T02:00:56;14.30;99.90
15906;DHT22;8051;50.820;4.884;2023-07-13T02:03:24;14.30;99.90
15906;DHT22;8051;50.820;4.884;2023-07-13T02:05:51;14.30;99.90
15906;DHT22;8051;50.820;4.884;2023-07-13T02:08:19;14.20;99.90
15906;DHT22;8051;50.820;4.884;2023-07-13T02:10:46;14.20;99.90
15906;DHT22;8051;50.820;4.884;2023-07-13T02:13:15;14.20;99.90
15906;DHT22;8051;50.820;4.884;2023-07-13T02:15:43;14.10;99.90
15906;DHT22;8051;50.820;4.884;2023-07-13T02:18:10;14.10;99.90
15906;DHT22;8051;50.820;4.884;2023-07-13T02:20:43;14.10;99.90
15906;DHT22;8051;50.820;4.884;2023-07-13T02:23:10;14.10;99.90
15906;DHT22;8051;50.820;4.884;2023-07-13T02:25:38;14.10;99.90
15906;DHT22;8051;50.820;4.884;2023-07-13T02:28:05;14.10;99.90
15906;DHT22;8051;50.820;4.884;2023-07-13T02:30:35;14.10;99.90
15906;DHT22;8051;50.820;4.884;2023-07-13T02:33:02;14.10;99.90
15906;DHT22;8051;50.820;4.884;2023-07-13T02:35:30;14.10;99.90
15906;DHT22;8051;50.820;4.884;2023-07-13T02:37:57;14.00;99.90
15906;DHT22;8051;50.820;4.884;2023-07-13T02:40:25;14.00;99.90
15906;DHT22;8051;50.820;4.884;2023-07-13T02:42:52;14.00;99.90
15906;DHT22;8051;50.820;4.884;2023-07-13T02:45:20;14.00;99.90
15906;DHT22;8051;50.820;4.884;2023-07-13T02:47:48;14.00;99.90
15906;DHT22;8051;50.820;4.884;2023-07-13T02:50:16;13.90;99.90
15906;DHT22;8051;50.820;4.884;2023-07-13T02:52:44;13.90;99.90
15906;DHT22;8051;50.820;4.884;2023-07-13T02:55:11;13.90;99.90
15906;DHT22;8051;50.820;4.884;2023-07-13T02:57:38;13.90;99.90
15906;DHT22;8051;50.820;4.884;2023-07-13T03:00:07;13.90;99.90
15906;DHT22;8051;50.820;4.884;2023-07-13T03:02:35;13.90;99.90
15906;DHT22;8051;50.820;4.884;2023-07-13T03:05:05;13.90;99.90
15906;DHT22;8051;50.820;4.884;2023-07-13T03:07:32;13.90;99.90
15906;DHT22;8051;50.820;4.884;2023-07-13T03:10:00;13.90;99.90
15906;DHT22;8051;50.820;4.884;2023-07-13T03:12:27;13.90;99.90
15906;DHT22;8051;50.820;4.884;2023-07-13T03:14:54;13.80;99.90
15906;DHT22;8051;50.820;4.884;2023-07-13T03:17:22;13.80;99.90
15906;DHT22;8051;50.820;4.884;2023-07-13T03:19:49;13.80;99.90
15906;DHT22;8051;50.820;4.884;2023-07-13T03:22:19;13.80;99.90
15906;DHT22;8051;50.820;4.884;2023-07-13T03:24:46;13.80;99.90
15906;DHT22;8051;50.820;4.884;2023-07-13T03:27:16;13.80;99.90
15906;DHT22;8051;50.820;4.884;2023-07-13T03:29:44;13.80;99.90
15906;DHT22;8051;50.820;4.884;2023-07-13T03:32:11;13.80;99.90
15906;DHT22;8051;50.820;4.884;2023-07-13T03:34:39;13.80;99.90
15906;DHT22;8051;50.820;4.884;2023-07-13T03:37:06;13.80;99.90
15906;DHT22;8051;50.820;4.884;2023-07-13T03:39:35;13.80;99.90
15906;DHT22;8051;50.820;4.884;2023-07-13T03:42:03;13.80;99.90
15906;DHT22;8051;50.820;4.884;2023-07-13T03:44:30;13.80;99.90
15906;DHT22;8051;50.820;4.884;2023-07-13T03:46:58;13.90;99.90
15906;DHT22;8051;50.820;4.884;2023-07-13T03:49:25;13.90;99.90
15906;DHT22;8051;50.820;4.884;2023-07-13T03:51:52;13.90;99.90
15906;DHT22;8051;50.820;4.884;2023-07-13T03:54:20;13.90;99.90
15906;DHT22;8051;50.820;4.884;2023-07-13T03:56:49;13.90;99.90
15906;DHT22;8051;50.820;4.884;2023-07-13T03:59:16;13.90;99.90
15906;DHT22;8051;50.820;4.884;2023-07-13T04:01:43;13.90;99.90
15906;DHT22;8051;50.820;4.884;2023-07-13T04:04:11;13.90;99.90
15906;DHT22;8051;50.820;4.884;2023-07-13T04:06:38;13.90;99.90
15906;DHT22;8051;50.820;4.884;2023-07-13T04:09:06;14.00;99.90
15906;DHT22;8051;50.820;4.884;2023-07-13T04:11:34;14.00;99.90
15906;DHT22;8051;50.820;4.884;2023-07-13T04:14:05;14.10;99.90
15906;DHT22;8051;50.820;4.884;2023-07-13T04:16:32;14.20;99.90
15906;DHT22;8051;50.820;4.884;2023-07-13T04:18:59;14.20;99.90
15906;DHT22;8051;50.820;4.884;2023-07-13T04:21:28;14.30;99.90
15906;DHT22;8051;50.820;4.884;2023-07-13T04:23:56;14.30;99.90
15906;DHT22;8051;50.820;4.884;2023-07-13T04:26:23;14.40;99.90
15906;DHT22;8051;50.820;4.884;2023-07-13T04:28:51;14.50;99.90
15906;DHT22;8051;50.820;4.884;2023-07-13T04:31:21;14.60;99.90
15906;DHT22;8051;50.820;4.884;2023-07-13T04:33:49;14.60;99.90
15906;DHT22;8051;50.820;4.884;2023-07-13T04:36:17;14.80;99.90
15906;DHT22;8051;50.820;4.884;2023-07-13T04:38:44;14.90;99.90
15906;DHT22;8051;50.820;4.884;2023-07-13T04:41:13;14.90;99.90
15906;DHT22;8051;50.820;4.884;2023-07-13T04:43:41;15.00;99.90
15906;DHT22;8051;50.820;4.884;2023-07-13T04:46:11;15.10;99.90
15906;DHT22;8051;50.820;4.884;2023-07-13T04:48:40;15.10;99.90
15906;DHT22;8051;50.820;4.884;2023-07-13T04:51:08;15.10;99.90
15906;DHT22;8051;50.820;4.884;2023-07-13T04:53:35;15.20;99.90
15906;DHT22;8051;50.820;4.884;2023-07-13T04:56:03;15.30;99.90
15906;DHT22;8051;50.820;4.884;2023-07-13T04:58:32;15.30;99.90
15906;DHT22;8051;50.820;4.884;2023-07-13T05:01:01;15.20;99.90
15906;DHT22;8051;50.820;4.884;2023-07-13T05:03:29;15.30;99.90
15906;DHT22;8051;50.820;4.884;2023-07-13T05:06:00;15.30;99.90
15906;DHT22;8051;50.820;4.884;2023-07-13T05:08:28;15.30;99.90
15906;DHT22;8051;50.820;4.884;2023-07-13T05:10:55;15.40;99.90
15906;DHT22;8051;50.820;4.884;2023-07-13T05:13:23;15.50;99.90
15906;DHT22;8051;50.820;4.884;2023-07-13T05:15:56;15.60;99.90
15906;DHT22;8051;50.820;4.884;2023-07-13T05:18:24;15.70;99.90
15906;DHT22;8051;50.820;4.884;2023-07-13T05:21:01;15.80;99.90
15906;DHT22;8051;50.820;4.884;2023-07-13T05:23:29;15.80;99.90
15906;DHT22;8051;50.820;4.884;2023-07-13T05:25:57;15.90;99.90
15906;DHT22;8051;50.820;4.884;2023-07-13T05:28:25;15.90;99.90
15906;DHT22;8051;50.820;4.884;2023-07-13T05:30:53;15.90;99.90
15906;DHT22;8051;50.820;4.884;2023-07-13T05:33:21;15.90;99.90
15906;DHT22;8051;50.820;4.884;2023-07-13T05:35:48;15.90;99.90
15906;DHT22;8051;50.820;4.884;2023-07-13T05:38:17;16.00;99.90
15906;DHT22;8051;50.820;4.884;2023-07-13T05:40:45;16.10;99.90
15906;DHT22;8051;50.820;4.884;2023-07-13T05:43:13;16.10;99.90
15906;DHT22;8051;50.820;4.884;2023-07-13T05:45:41;16.20;99.90
15906;DHT22;8051;50.820;4.884;2023-07-13T05:48:09;16.30;99.90
15906;DHT22;8051;50.820;4.884;2023-07-13T05:50:36;16.30;99.90
15906;DHT22;8051;50.820;4.884;2023-07-13T05:53:04;16.40;99.90
15906;DHT22;8051;50.820;4.884;2023-07-13T05:55:33;16.50;99.90
15906;DHT22;8051;50.820;4.884;2023-07-13T05:58:01;16.50;99.90
15906;DHT22;8051;50.820;4.884;2023-07-13T06:00:28;16.50;99.90
15906;DHT22;8051;50.820;4.884;2023-07-13T06:02:56;16.60;99.90
15906;DHT22;8051;50.820;4.884;2023-07-13T06:05:24;16.70;99.90
15906;DHT22;8051;50.820;4.884;2023-07-13T06:07:52;16.80;99.90
15906;DHT22;8051;50.820;4.884;2023-07-13T06:10:20;16.80;99.90
15906;DHT22;8051;50.820;4.884;2023-07-13T06:12:49;16.90;99.90
15906;DHT22;8051;50.820;4.884;2023-07-13T06:15:17;17.10;99.90
15906;DHT22;8051;50.820;4.884;2023-07-13T06:17:44;17.20;99.90
15906;DHT22;8051;50.820;4.884;2023-07-13T06:20:12;17.20;99.90
15906;DHT22;8051;50.820;4.884;2023-07-13T06:22:39;17.30;99.90
15906;DHT22;8051;50.820;4.884;2023-07-13T06:25:08;17.20;99.90
15906;DHT22;8051;50.820;4.884;2023-07-13T06:27:36;17.20;99.90
15906;DHT22;8051;50.820;4.884;2023-07-13T06:30:05;17.20;99.90
15906;DHT22;8051;50.820;4.884;2023-07-13T06:32:33;17.30;99.90
15906;DHT22;8051;50.820;4.884;2023-07-13T06:35:00;17.30;99.90
15906;DHT22;8051;50.820;4.884;2023-07-13T06:37:28;17.20;99.90
15906;DHT22;8051;50.820;4.884;2023-07-13T06:39:55;17.30;99.90
15906;DHT22;8051;50.820;4.884;2023-07-13T06:42:23;17.40;99.90
15906;DHT22;8051;50.820;4.884;2023-07-13T06:44:50;17.50;99.90
15906;DHT22;8051;50.820;4.884;2023-07-13T06:47:19;17.60;99.90
15906;DHT22;8051;50.820;4.884;2023-07-13T06:49:46;17.60;99.90
15906;DHT22;8051;50.820;4.884;2023-07-13T06:52:14;17.60;99.90
15906;DHT22;8051;50.820;4.884;2023-07-13T06:54:41;17.50;99.90
15906;DHT22;8051;50.820;4.884;2023-07-13T06:57:09;17.50;99.90
15906;DHT22;8051;50.820;4.884;2023-07-13T06:59:36;17.70;99.90
15906;DHT22;8051;50.820;4.884;2023-07-13T07:02:04;17.90;99.90
15906;DHT22;8051;50.820;4.884;2023-07-13T07:04:33;18.00;99.90
15906;DHT22;8051;50.820;4.884;2023-07-13T07:07:01;18.00;99.90
15906;DHT22;8051;50.820;4.884;2023-07-13T07:09:28;18.00;99.90
15906;DHT22;8051;50.820;4.884;2023-07-13T07:11:57;18.00;99.90
15906;DHT22;8051;50.820;4.884;2023-07-13T07:14:24;18.10;99.90
15906;DHT22;8051;50.820;4.884;2023-07-13T07:16:52;18.20;99.90
15906;DHT22;8051;50.820;4.884;2023-07-13T07:19:19;18.30;99.90
15906;DHT22;8051;50.820;4.884;2023-07-13T07:21:48;18.40;99.90
15906;DHT22;8051;50.820;4.884;2023-07-13T07:24:16;18.50;99.90
15906;DHT22;8051;50.820;4.884;2023-07-13T07:26:43;18.70;99.90
15906;DHT22;8051;50.820;4.884;2023-07-13T07:29:11;18.70;99.90
15906;DHT22;8051;50.820;4.884;2023-07-13T07:31:38;18.90;99.90
15906;DHT22;8051;50.820;4.884;2023-07-13T07:34:06;19.00;99.90
15906;DHT22;8051;50.820;4.884;2023-07-13T07:36:34;19.10;99.90
15906;DHT22;8051;50.820;4.884;2023-07-13T07:39:03;19.20;99.90
15906;DHT22;8051;50.820;4.884;2023-07-13T07:41:30;19.40;99.90
15906;DHT22;8051;50.820;4.884;2023-07-13T07:43:58;19.50;99.90
15906;DHT22;8051;50.820;4.884;2023-07-13T07:46:25;19.50;99.90
15906;DHT22;8051;50.820;4.884;2023-07-13T07:48:53;19.30;99.90
15906;DHT22;8051;50.820;4.884;2023-07-13T07:51:21;19.20;99.90
15906;DHT22;8051;50.820;4.884;2023-07-13T07:53:48;19.30;99.90
15906;DHT22;8051;50.820;4.884;2023-07-13T07:56:17;19.40;99.90
15906;DHT22;8051;50.820;4.884;2023-07-13T07:58:45;19.50;99.90
15906;DHT22;8051;50.820;4.884;2023-07-13T08:01:12;19.60;99.90
15906;DHT22;8051;50.820;4.884;2023-07-13T08:03:40;19.50;99.90
15906;DHT22;8051;50.820;4.884;2023-07-13T08:06:07;19.40;99.90
15906;DHT22;8051;50.820;4.884;2023-07-13T08:08:35;19.50;99.90
15906;DHT22;8051;50.820;4.884;2023-07-13T08:11:03;19.70;99.90
15906;DHT22;8051;50.820;4.884;2023-07-13T08:13:33;19.90;99.90
15906;DHT22;8051;50.820;4.884;2023-07-13T08:16:00;19.70;99.90
15906;DHT22;8051;50.820;4.884;2023-07-13T08:18:28;19.50;99.90
15906;DHT22;8051;50.820;4.884;2023-07-13T08:20:55;19.70;99.90
15906;DHT22;8051;50.820;4.884;2023-07-13T08:23:24;20.00;99.90
15906;DHT22;8051;50.820;4.884;2023-07-13T08:25:53;19.90;99.90
15906;DHT22;8051;50.820;4.884;2023-07-13T08:28:20;19.70;99.90
15906;DHT22;8051;50.820;4.884;2023-07-13T08:30:49;19.50;99.90
15906;DHT22;8051;50.820;4.884;2023-07-13T08:33:17;19.60;99.90
15906;DHT22;8051;50.820;4.884;2023-07-13T08:35:46;19.90;99.90
15906;DHT22;8051;50.820;4.884;2023-07-13T08:38:14;19.90;99.90
15906;DHT22;8051;50.820;4.884;2023-07-13T08:40:41;19.90;99.90
15906;DHT22;8051;50.820;4.884;2023-07-13T08:43:13;20.00;99.90
15906;DHT22;8051;50.820;4.884;2023-07-13T08:45:44;20.20;99.90
15906;DHT22;8051;50.820;4.884;2023-07-13T08:48:20;20.20;99.90
15906;DHT22;8051;50.820;4.884;2023-07-13T08:50:51;20.30;99.90
15906;DHT22;8051;50.820;4.884;2023-07-13T08:53:20;20.20;99.90
15906;DHT22;8051;50.820;4.884;2023-07-13T08:55:58;20.00;99.90
15906;DHT22;8051;50.820;4.884;2023-07-13T08:58:27;20.00;99.90
15906;DHT22;8051;50.820;4.884;2023-07-13T09:01:04;19.90;99.90
15906;DHT22;8051;50.820;4.884;2023-07-13T09:03:43;19.90;99.90
15906;DHT22;8051;50.820;4.884;2023-07-13T09:06:15;19.90;99.90
15906;DHT22;8051;50.820;4.884;2023-07-13T09:08:57;19.70;99.90
15906;DHT22;8051;50.820;4.884;2023-07-13T09:11:36;19.80;99.90
15906;DHT22;8051;50.820;4.884;2023-07-13T09:14:24;20.00;99.90
15906;DHT22;8051;50.820;4.884;2023-07-13T09:16:54;20.00;99.90
15906;DHT22;8051;50.820;4.884;2023-07-13T09:19:26;20.00;99.90
15906;DHT22;8051;50.820;4.884;2023-07-13T09:21:56;20.10;99.90
15906;DHT22;8051;50.820;4.884;2023-07-13T09:24:35;20.20;99.90
15906;DHT22;8051;50.820;4.884;2023-07-13T09:27:12;20.20;99.90
15906;DHT22;8051;50.820;4.884;2023-07-13T09:29:47;20.60;99.90
15906;DHT22;8051;50.820;4.884;2023-07-13T09:32:18;20.70;99.90
15906;DHT22;8051;50.820;4.884;2023-07-13T09:34:52;20.90;99.90
15906;DHT22;8051;50.820;4.884;2023-07-13T09:37:21;21.20;99.90
15906;DHT22;8051;50.820;4.884;2023-07-13T09:39:50;21.20;99.90
15906;DHT22;8051;50.820;4.884;2023-07-13T09:42:21;21.50;99.90
15906;DHT22;8051;50.820;4.884;2023-07-13T09:44:54;21.40;99.90
15906;DHT22;8051;50.820;4.884;2023-07-13T09:47:23;21.20;99.90
15906;DHT22;8051;50.820;4.884;2023-07-13T09:49:59;21.30;99.90
15906;DHT22;8051;50.820;4.884;2023-07-13T09:52:28;21.40;99.90
15906;DHT22;8051;50.820;4.884;2023-07-13T09:55:24;21.80;99.90
15906;DHT22;8051;50.820;4.884;2023-07-13T09:57:51;22.10;99.90
15906;DHT22;8051;50.820;4.884;2023-07-13T10:00:24;22.20;99.90
15906;DHT22;8051;50.820;4.884;2023-07-13T10:03:03;21.90;99.90
15906;DHT22;8051;50.820;4.884;2023-07-13T10:05:44;22.10;99.90
15906;DHT22;8051;50.820;4.884;2023-07-13T10:08:20;21.80;99.90
15906;DHT22;8051;50.820;4.884;2023-07-13T10:10:53;21.80;99.90
15906;DHT22;8051;50.820;4.884;2023-07-13T10:13:31;22.00;99.90
15906;DHT22;8051;50.820;4.884;2023-07-13T10:16:00;22.00;99.90
15906;DHT22;8051;50.820;4.884;2023-07-13T10:18:30;22.10;99.90
15906;DHT22;8051;50.820;4.884;2023-07-13T10:21:10;22.00;99.90
15906;DHT22;8051;50.820;4.884;2023-07-13T10:23:38;22.10;99.90
15906;DHT22;8051;50.820;4.884;2023-07-13T10:26:12;22.10;99.90
15906;DHT22;8051;50.820;4.884;2023-07-13T10:28:42;21.90;99.90
15906;DHT22;8051;50.820;4.884;2023-07-13T10:31:13;21.90;99.90
15906;DHT22;8051;50.820;4.884;2023-07-13T10:33:41;21.90;99.90
15906;DHT22;8051;50.820;4.884;2023-07-13T10:36:16;21.80;99.90
15906;DHT22;8051;50.820;4.884;2023-07-13T10:38:45;21.60;99.90
15906;DHT22;8051;50.820;4.884;2023-07-13T10:41:17;21.60;99.90
15906;DHT22;8051;50.820;4.884;2023-07-13T10:43:48;22.10;99.90
15906;DHT22;8051;50.820;4.884;2023-07-13T10:46:19;22.20;99.90
15906;DHT22;8051;50.820;4.884;2023-07-13T10:48:51;22.50;99.90
15906;DHT22;8051;50.820;4.884;2023-07-13T10:51:21;22.40;99.90
15906;DHT22;8051;50.820;4.884;2023-07-13T10:54:14;22.50;99.90
15906;DHT22;8051;50.820;4.884;2023-07-13T10:56:44;22.80;99.90
15906;DHT22;8051;50.820;4.884;2023-07-13T10:59:14;22.80;99.90
15906;DHT22;8051;50.820;4.884;2023-07-13T11:01:55;22.70;99.90
15906;DHT22;8051;50.820;4.884;2023-07-13T11:04:24;22.70;99.90
15906;DHT22;8051;50.820;4.884;2023-07-13T11:06:58;22.80;99.90
15906;DHT22;8051;50.820;4.884;2023-07-13T11:09:36;22.90;99.90
15906;DHT22;8051;50.820;4.884;2023-07-13T11:12:09;22.80;99.90
15906;DHT22;8051;50.820;4.884;2023-07-13T11:17:36;22.70;99.90
15906;DHT22;8051;50.820;4.884;2023-07-13T11:20:23;22.80;99.90
15906;DHT22;8051;50.820;4.884;2023-07-13T11:22:53;22.80;99.90
15906;DHT22;8051;50.820;4.884;2023-07-13T11:25:35;22.70;99.90
15906;DHT22;8051;50.820;4.884;2023-07-13T11:28:16;22.90;99.90
15906;DHT22;8051;50.820;4.884;2023-07-13T11:30:47;23.10;99.90
15906;DHT22;8051;50.820;4.884;2023-07-13T11:33:18;23.10;99.90
15906;DHT22;8051;50.820;4.884;2023-07-13T11:35:57;23.10;99.90
15906;DHT22;8051;50.820;4.884;2023-07-13T11:38:33;23.30;99.90
15906;DHT22;8051;50.820;4.884;2023-07-13T11:41:05;23.10;99.90
15906;DHT22;8051;50.820;4.884;2023-07-13T11:43:33;23.10;99.90
15906;DHT22;8051;50.820;4.884;2023-07-13T11:46:15;23.20;99.90
15906;DHT22;8051;50.820;4.884;2023-07-13T11:48:44;23.40;99.90
15906;DHT22;8051;50.820;4.884;2023-07-13T11:51:19;23.30;99.90
15906;DHT22;8051;50.820;4.884;2023-07-13T11:53:51;23.30;99.90
15906;DHT22;8051;50.820;4.884;2023-07-13T11:56:19;23.10;99.90
15906;DHT22;8051;50.820;4.884;2023-07-13T11:58:51;23.30;99.90
15906;DHT22;8051;50.820;4.884;2023-07-13T12:01:21;23.40;99.90
15906;DHT22;8051;50.820;4.884;2023-07-13T12:03:49;23.20;99.90
15906;DHT22;8051;50.820;4.884;2023-07-13T12:06:26;23.00;99.90
15906;DHT22;8051;50.820;4.884;2023-07-13T12:08:58;23.20;99.90
15906;DHT22;8051;50.820;4.884;2023-07-13T12:11:27;23.30;99.90
15906;DHT22;8051;50.820;4.884;2023-07-13T12:13:54;23.40;99.90
15906;DHT22;8051;50.820;4.884;2023-07-13T12:16:27;23.40;99.90
15906;DHT22;8051;50.820;4.884;2023-07-13T12:18:56;23.70;99.90
15906;DHT22;8051;50.820;4.884;2023-07-13T12:21:31;23.90;99.90
15906;DHT22;8051;50.820;4.884;2023-07-13T12:24:01;24.00;99.90
15906;DHT22;8051;50.820;4.884;2023-07-13T12:26:30;24.10;99.90
15906;DHT22;8051;50.820;4.884;2023-07-13T12:29:00;24.20;99.90
15906;DHT22;8051;50.820;4.884;2023-07-13T12:31:34;24.30;99.90
15906;DHT22;8051;50.820;4.884;2023-07-13T12:34:06;24.60;99.90
15906;DHT22;8051;50.820;4.884;2023-07-13T12:36:35;24.30;99.90
15906;DHT22;8051;50.820;4.884;2023-07-13T12:39:13;24.10;99.90
15906;DHT22;8051;50.820;4.884;2023-07-13T12:41:41;23.80;99.90
15906;DHT22;8051;50.820;4.884;2023-07-13T12:44:12;23.30;99.90
15906;DHT22;8051;50.820;4.884;2023-07-13T12:46:52;23.00;99.90
15906;DHT22;8051;50.820;4.884;2023-07-13T12:49:25;22.80;99.90
15906;DHT22;8051;50.820;4.884;2023-07-13T12:51:58;22.40;99.90
15906;DHT22;8051;50.820;4.884;2023-07-13T12:54:28;22.20;99.90
15906;DHT22;8051;50.820;4.884;2023-07-13T12:56:57;22.20;99.90
15906;DHT22;8051;50.820;4.884;2023-07-13T12:59:31;22.40;99.90
15906;DHT22;8051;50.820;4.884;2023-07-13T13:02:04;22.60;99.90
15906;DHT22;8051;50.820;4.884;2023-07-13T13:04:48;22.80;99.90
15906;DHT22;8051;50.820;4.884;2023-07-13T13:07:16;23.30;99.90
15906;DHT22;8051;50.820;4.884;2023-07-13T13:09:45;23.40;99.90
15906;DHT22;8051;50.820;4.884;2023-07-13T13:12:13;23.30;99.90
15906;DHT22;8051;50.820;4.884;2023-07-13T13:14:41;23.50;99.90
15906;DHT22;8051;50.820;4.884;2023-07-13T13:17:18;23.80;99.90
15906;DHT22;8051;50.820;4.884;2023-07-13T13:19:46;24.50;99.90
15906;DHT22;8051;50.820;4.884;2023-07-13T13:22:14;24.90;99.90
15906;DHT22;8051;50.820;4.884;2023-07-13T13:24:41;24.60;99.90
15906;DHT22;8051;50.820;4.884;2023-07-13T13:27:15;23.60;99.90
15906;DHT22;8051;50.820;4.884;2023-07-13T13:29:45;22.80;99.90
15906;DHT22;8051;50.820;4.884;2023-07-13T13:32:13;22.60;99.90
15906;DHT22;8051;50.820;4.884;2023-07-13T13:34:41;22.50;99.90
15906;DHT22;8051;50.820;4.884;2023-07-13T13:37:19;22.50;99.90
15906;DHT22;8051;50.820;4.884;2023-07-13T13:39:47;22.40;99.90
15906;DHT22;8051;50.820;4.884;2023-07-13T13:42:17;22.40;99.90
15906;DHT22;8051;50.820;4.884;2023-07-13T13:44:45;21.90;99.90
15906;DHT22;8051;50.820;4.884;2023-07-13T13:47:25;21.50;99.90
15906;DHT22;8051;50.820;4.884;2023-07-13T13:49:55;21.10;99.90
15906;DHT22;8051;50.820;4.884;2023-07-13T13:52:23;21.20;99.90
15906;DHT22;8051;50.820;4.884;2023-07-13T13:54:51;21.30;99.90
15906;DHT22;8051;50.820;4.884;2023-07-13T13:57:23;21.70;99.90
15906;DHT22;8051;50.820;4.884;2023-07-13T13:59:51;22.10;99.90
15906;DHT22;8051;50.820;4.884;2023-07-13T14:02:25;22.30;99.90
15906;DHT22;8051;50.820;4.884;2023-07-13T14:04:58;22.80;99.90
15906;DHT22;8051;50.820;4.884;2023-07-13T14:07:26;23.20;99.90
15906;DHT22;8051;50.820;4.884;2023-07-13T14:09:57;23.20;99.90
15906;DHT22;8051;50.820;4.884;2023-07-13T14:12:28;23.10;99.90
15906;DHT22;8051;50.820;4.884;2023-07-13T14:14:56;22.90;99.90
15906;DHT22;8051;50.820;4.884;2023-07-13T14:17:25;22.90;99.90
15906;DHT22;8051;50.820;4.884;2023-07-13T14:19:54;23.00;99.90
15906;DHT22;8051;50.820;4.884;2023-07-13T14:22:23;23.30;99.90
15906;DHT22;8051;50.820;4.884;2023-07-13T14:24:52;23.60;99.90
15906;DHT22;8051;50.820;4.884;2023-07-13T14:27:20;23.60;99.90
15906;DHT22;8051;50.820;4.884;2023-07-13T14:29:49;23.40;99.90
15906;DHT22;8051;50.820;4.884;2023-07-13T14:32:16;23.50;99.90
15906;DHT22;8051;50.820;4.884;2023-07-13T14:34:43;23.50;99.90
15906;DHT22;8051;50.820;4.884;2023-07-13T14:37:13;23.50;99.90
15906;DHT22;8051;50.820;4.884;2023-07-13T14:39:43;23.70;99.90
15906;DHT22;8051;50.820;4.884;2023-07-13T14:42:11;24.20;99.90
15906;DHT22;8051;50.820;4.884;2023-07-13T14:44:39;24.40;99.90
15906;DHT22;8051;50.820;4.884;2023-07-13T14:47:08;24.50;99.90
15906;DHT22;8051;50.820;4.884;2023-07-13T14:49:39;24.30;99.90
15906;DHT22;8051;50.820;4.884;2023-07-13T14:52:11;24.60;99.90
15906;DHT22;8051;50.820;4.884;2023-07-13T14:54:40;24.50;99.90
15906;DHT22;8051;50.820;4.884;2023-07-13T14:57:10;25.00;99.90
15906;DHT22;8051;50.820;4.884;2023-07-13T14:59:38;24.40;99.90
15906;DHT22;8051;50.820;4.884;2023-07-13T15:02:15;24.00;99.90
15906;DHT22;8051;50.820;4.884;2023-07-13T15:04:43;23.80;99.90
15906;DHT22;8051;50.820;4.884;2023-07-13T15:07:12;23.90;99.90
15906;DHT22;8051;50.820;4.884;2023-07-13T15:09:41;23.90;99.90
15906;DHT22;8051;50.820;4.884;2023-07-13T15:12:09;23.60;99.90
15906;DHT22;8051;50.820;4.884;2023-07-13T15:14:37;23.40;99.90
15906;DHT22;8051;50.820;4.884;2023-07-13T15:17:05;23.20;99.90
15906;DHT22;8051;50.820;4.884;2023-07-13T15:19:35;23.00;99.90
15906;DHT22;8051;50.820;4.884;2023-07-13T15:22:03;22.90;99.90
15906;DHT22;8051;50.820;4.884;2023-07-13T15:24:31;22.80;99.90
15906;DHT22;8051;50.820;4.884;2023-07-13T15:26:59;22.70;99.90
15906;DHT22;8051;50.820;4.884;2023-07-13T15:29:26;22.70;99.90
15906;DHT22;8051;50.820;4.884;2023-07-13T15:31:53;22.80;99.90
15906;DHT22;8051;50.820;4.884;2023-07-13T15:34:24;22.70;99.90
15906;DHT22;8051;50.820;4.884;2023-07-13T15:36:54;22.80;99.90
15906;DHT22;8051;50.820;4.884;2023-07-13T15:39:22;23.10;99.90
15906;DHT22;8051;50.820;4.884;2023-07-13T15:41:50;23.20;99.90
15906;DHT22;8051;50.820;4.884;2023-07-13T15:44:26;23.30;99.90
15906;DHT22;8051;50.820;4.884;2023-07-13T15:46:54;23.10;99.90
15906;DHT22;8051;50.820;4.884;2023-07-13T15:49:22;23.00;99.90
15906;DHT22;8051;50.820;4.884;2023-07-13T15:51:50;23.00;99.90
15906;DHT22;8051;50.820;4.884;2023-07-13T15:54:19;22.90;99.90
15906;DHT22;8051;50.820;4.884;2023-07-13T15:56:52;22.80;99.90
15906;DHT22;8051;50.820;4.884;2023-07-13T15:59:20;22.90;99.90
15906;DHT22;8051;50.820;4.884;2023-07-13T16:01:47;22.80;99.90
15906;DHT22;8051;50.820;4.884;2023-07-13T16:04:15;22.80;99.90